sensor_id;sensor_type;location;lat;lon;timestamp;P1;P2;P0
33948;PMS7003;20229;49.856;19.030;2022-11-20T00:02:45;45;36;25
33948;PMS7003;20229;49.856;19.030;2022-11-20T00:08:07;19;8;3
33948;PMS7003;20229;49.856;19.030;2022-11-20T00:13:11;43;32;21
33948;PMS7003;20229;49.856;19.030;2022-11-20T00:18:33;46;35;21
33948;PMS7003;20229;49.856;19.030;2022-11-20T00:23:37;58;43;27
33948;PMS7003;20229;49.856;19.030;2022-11-20T00:29:00;47;36;23
33948;PMS7003;20229;49.856;19.030;2022-11-20T00:34:04;54;38;23
33948;PMS7003;20229;49.856;19.030;2022-11-20T00:39:25;56;40;22
33948;PMS7003;20229;49.856;19.030;2022-11-20T00:44:29;49;36;22
33948;PMS7003;20229;49.856;19.030;2022-11-20T00:49:51;36;26;7
33948;PMS7003;20229;49.856;19.030;2022-11-20T00:54:55;35;24;6
33948;PMS7003;20229;49.856;19.030;2022-11-20T01:00:18;35;26;7
33948;PMS7003;20229;49.856;19.030;2022-11-20T01:05:21;52;42;31
33948;PMS7003;20229;49.856;19.030;2022-11-20T01:10:44;61;46;31
33948;PMS7003;20229;49.856;19.030;2022-11-20T01:15:47;51;38;25
33948;PMS7003;20229;49.856;19.030;2022-11-20T01:21:14;60;47;34
33948;PMS7003;20229;49.856;19.030;2022-11-20T01:26:26;57;46;33
33948;PMS7003;20229;49.856;19.030;2022-11-20T01:31:36;63;54;42
33948;PMS7003;20229;49.856;19.030;2022-11-20T01:36:40;76;67;58
33948;PMS7003;20229;49.856;19.030;2022-11-20T01:42:01;70;65;55
33948;PMS7003;20229;49.856;19.030;2022-11-20T01:52:30;88;79;68
33948;PMS7003;20229;49.856;19.030;2022-11-20T01:57:39;76;66;55
33948;PMS7003;20229;49.856;19.030;2022-11-20T02:02:56;57;45;33
33948;PMS7003;20229;49.856;19.030;2022-11-20T02:08:03;54;39;24
33948;PMS7003;20229;49.856;19.030;2022-11-20T02:13:20;51;39;27
33948;PMS7003;20229;49.856;19.030;2022-11-20T02:18:36;55;42;28
33948;PMS7003;20229;49.856;19.030;2022-11-20T02:29:02;54;42;27
33948;PMS7003;20229;49.856;19.030;2022-11-20T02:34:13;57;43;29
33948;PMS7003;20229;49.856;19.030;2022-11-20T02:39:16;61;46;30
33948;PMS7003;20229;49.856;19.030;2022-11-20T02:44:39;57;43;28
33948;PMS7003;20229;49.856;19.030;2022-11-20T02:49:42;49;38;24
33948;PMS7003;20229;49.856;19.030;2022-11-20T02:55:05;56;42;27
33948;PMS7003;20229;49.856;19.030;2022-11-20T03:00:10;42;28;11
33948;PMS7003;20229;49.856;19.030;2022-11-20T03:05:31;52;41;26
33948;PMS7003;20229;49.856;19.030;2022-11-20T03:10:34;54;40;26
33948;PMS7003;20229;49.856;19.030;2022-11-20T03:15:57;53;41;27
33948;PMS7003;20229;49.856;19.030;2022-11-20T03:21:00;46;37;26
33948;PMS7003;20229;49.856;19.030;2022-11-20T03:26:24;55;41;26
33948;PMS7003;20229;49.856;19.030;2022-11-20T03:31:32;53;41;26
33948;PMS7003;20229;49.856;19.030;2022-11-20T03:36:49;44;32;16
33948;PMS7003;20229;49.856;19.030;2022-11-20T03:41:52;47;35;21
33948;PMS7003;20229;49.856;19.030;2022-11-20T03:47:16;53;40;25
33948;PMS7003;20229;49.856;19.030;2022-11-20T03:52:19;53;38;25
33948;PMS7003;20229;49.856;19.030;2022-11-20T03:57:41;47;37;25
33948;PMS7003;20229;49.856;19.030;2022-11-20T04:02:45;49;38;27
33948;PMS7003;20229;49.856;19.030;2022-11-20T04:08:08;34;24;21
33948;PMS7003;20229;49.856;19.030;2022-11-20T04:13:11;48;37;25
33948;PMS7003;20229;49.856;19.030;2022-11-20T04:18:33;50;37;26
33948;PMS7003;20229;49.856;19.030;2022-11-20T04:23:38;43;35;22
33948;PMS7003;20229;49.856;19.030;2022-11-20T04:29:00;50;38;25
33948;PMS7003;20229;49.856;19.030;2022-11-20T04:34:06;44;34;22
33948;PMS7003;20229;49.856;19.030;2022-11-20T04:39:26;43;35;24
33948;PMS7003;20229;49.856;19.030;2022-11-20T04:44:29;41;32;22
33948;PMS7003;20229;49.856;19.030;2022-11-20T04:49:52;43;33;21
33948;PMS7003;20229;49.856;19.030;2022-11-20T04:54:55;41;33;22
33948;PMS7003;20229;49.856;19.030;2022-11-20T05:00:18;46;37;23
33948;PMS7003;20229;49.856;19.030;2022-11-20T05:05:21;47;36;24
33948;PMS7003;20229;49.856;19.030;2022-11-20T05:10:43;39;29;19
33948;PMS7003;20229;49.856;19.030;2022-11-20T05:15:47;45;34;22
33948;PMS7003;20229;49.856;19.030;2022-11-20T05:21:10;45;36;23
33948;PMS7003;20229;49.856;19.030;2022-11-20T05:26:17;39;30;20
33948;PMS7003;20229;49.856;19.030;2022-11-20T05:31:36;12;10;7
33948;PMS7003;20229;49.856;19.030;2022-11-20T05:36:40;51;39;25
33948;PMS7003;20229;49.856;19.030;2022-11-20T05:42:02;46;36;25
33948;PMS7003;20229;49.856;19.030;2022-11-20T05:47:17;45;36;23
33948;PMS7003;20229;49.856;19.030;2022-11-20T05:52:28;38;27;15
33948;PMS7003;20229;49.856;19.030;2022-11-20T05:57:32;41;33;22
33948;PMS7003;20229;49.856;19.030;2022-11-20T06:02:54;40;31;21
33948;PMS7003;20229;49.856;19.030;2022-11-20T06:07:57;41;33;21
33948;PMS7003;20229;49.856;19.030;2022-11-20T06:13:20;40;31;22
33948;PMS7003;20229;49.856;19.030;2022-11-20T06:18:25;40;30;20
33948;PMS7003;20229;49.856;19.030;2022-11-20T06:23:46;46;35;23
33948;PMS7003;20229;49.856;19.030;2022-11-20T06:28:50;51;38;25
33948;PMS7003;20229;49.856;19.030;2022-11-20T06:34:12;45;33;22
33948;PMS7003;20229;49.856;19.030;2022-11-20T06:39:15;41;31;19
33948;PMS7003;20229;49.856;19.030;2022-11-20T06:44:38;43;32;21
33948;PMS7003;20229;49.856;19.030;2022-11-20T06:49:41;39;31;22
33948;PMS7003;20229;49.856;19.030;2022-11-20T06:55:04;39;30;19
33948;PMS7003;20229;49.856;19.030;2022-11-20T07:00:08;41;32;21
33948;PMS7003;20229;49.856;19.030;2022-11-20T07:05:30;22;16;3
33948;PMS7003;20229;49.856;19.030;2022-11-20T07:10:34;43;35;23
33948;PMS7003;20229;49.856;19.030;2022-11-20T07:15:59;39;31;20
33948;PMS7003;20229;49.856;19.030;2022-11-20T07:21:06;37;31;20
33948;PMS7003;20229;49.856;19.030;2022-11-20T07:26:22;42;31;20
33948;PMS7003;20229;49.856;19.030;2022-11-20T07:31:25;40;29;20
33948;PMS7003;20229;49.856;19.030;2022-11-20T07:36:48;39;31;22
33948;PMS7003;20229;49.856;19.030;2022-11-20T07:41:51;39;31;21
33948;PMS7003;20229;49.856;19.030;2022-11-20T07:47:14;39;31;20
33948;PMS7003;20229;49.856;19.030;2022-11-20T07:52:17;38;28;19
33948;PMS7003;20229;49.856;19.030;2022-11-20T07:57:40;64;55;38
33948;PMS7003;20229;49.856;19.030;2022-11-20T08:02:43;76;67;49
33948;PMS7003;20229;49.856;19.030;2022-11-20T08:08:06;61;49;34
33948;PMS7003;20229;49.856;19.030;2022-11-20T08:13:10;61;49;33
33948;PMS7003;20229;49.856;19.030;2022-11-20T08:18:32;67;53;35
33948;PMS7003;20229;49.856;19.030;2022-11-20T08:23:35;45;31;11
33948;PMS7003;20229;49.856;19.030;2022-11-20T08:28:58;63;45;29
33948;PMS7003;20229;49.856;19.030;2022-11-20T08:34:02;59;45;28
33948;PMS7003;20229;49.856;19.030;2022-11-20T08:39:24;70;52;33
33948;PMS7003;20229;49.856;19.030;2022-11-20T08:44:27;69;53;32
33948;PMS7003;20229;49.856;19.030;2022-11-20T08:49:50;72;57;36
33948;PMS7003;20229;49.856;19.030;2022-11-20T08:54:53;101;79;48
33948;PMS7003;20229;49.856;19.030;2022-11-20T09:00:16;76;61;39
33948;PMS7003;20229;49.856;19.030;2022-11-20T09:05:20;66;49;32
33948;PMS7003;20229;49.856;19.030;2022-11-20T09:10:42;49;37;22
33948;PMS7003;20229;49.856;19.030;2022-11-20T09:15:45;52;40;26
33948;PMS7003;20229;49.856;19.030;2022-11-20T09:21:11;67;55;40
33948;PMS7003;20229;49.856;19.030;2022-11-20T09:26:16;59;48;40
33948;PMS7003;20229;49.856;19.030;2022-11-20T09:31:34;72;61;45
33948;PMS7003;20229;49.856;19.030;2022-11-20T09:36:38;64;48;36
33948;PMS7003;20229;49.856;19.030;2022-11-20T09:42:07;53;40;27
33948;PMS7003;20229;49.856;19.030;2022-11-20T09:57:51;40;28;14
33948;PMS7003;20229;49.856;19.030;2022-11-20T10:02:59;46;35;20
33948;PMS7003;20229;49.856;19.030;2022-11-20T10:08:14;49;39;25
33948;PMS7003;20229;49.856;19.030;2022-11-20T10:13:32;53;43;27
33948;PMS7003;20229;49.856;19.030;2022-11-20T10:18:44;53;40;26
33948;PMS7003;20229;49.856;19.030;2022-11-20T10:23:59;54;39;26
33948;PMS7003;20229;49.856;19.030;2022-11-20T10:29:14;54;39;24
33948;PMS7003;20229;49.856;19.030;2022-11-20T10:34:31;47;32;22
33948;PMS7003;20229;49.856;19.030;2022-11-20T10:45:02;43;32;21
33948;PMS7003;20229;49.856;19.030;2022-11-20T10:50:14;50;38;25
33948;PMS7003;20229;49.856;19.030;2022-11-20T10:55:25;53;40;24
33948;PMS7003;20229;49.856;19.030;2022-11-20T11:00:36;50;38;26
33948;PMS7003;20229;49.856;19.030;2022-11-20T11:10:57;55;41;27
33948;PMS7003;20229;49.856;19.030;2022-11-20T11:16:05;48;37;21
33948;PMS7003;20229;49.856;19.030;2022-11-20T11:21:13;45;34;23
33948;PMS7003;20229;49.856;19.030;2022-11-20T11:26:29;46;36;23
33948;PMS7003;20229;49.856;19.030;2022-11-20T11:31:33;48;37;23
33948;PMS7003;20229;49.856;19.030;2022-11-20T11:36:52;47;36;22
33948;PMS7003;20229;49.856;19.030;2022-11-20T11:42:01;52;37;25
33948;PMS7003;20229;49.856;19.030;2022-11-20T11:47:12;53;38;25
33948;PMS7003;20229;49.856;19.030;2022-11-20T11:52:25;53;39;26
33948;PMS7003;20229;49.856;19.030;2022-11-20T12:02:54;49;39;24
33948;PMS7003;20229;49.856;19.030;2022-11-20T12:08:05;48;38;25
33948;PMS7003;20229;49.856;19.030;2022-11-20T12:18:36;56;39;25
33948;PMS7003;20229;49.856;19.030;2022-11-20T12:23:44;52;41;26
33948;PMS7003;20229;49.856;19.030;2022-11-20T13:00:38;45;36;22
33948;PMS7003;20229;49.856;19.030;2022-11-20T13:21:38;45;33;22
33948;PMS7003;20229;49.856;19.030;2022-11-20T13:26:43;45;35;22
33948;PMS7003;20229;49.856;19.030;2022-11-20T13:31:47;54;38;25
33948;PMS7003;20229;49.856;19.030;2022-11-20T13:36:52;53;41;26
33948;PMS7003;20229;49.856;19.030;2022-11-20T13:41:58;55;41;25
33948;PMS7003;20229;49.856;19.030;2022-11-20T13:52:29;54;40;26
33948;PMS7003;20229;49.856;19.030;2022-11-20T13:57:46;52;39;25
33948;PMS7003;20229;49.856;19.030;2022-11-20T14:13:34;54;41;27
33948;PMS7003;20229;49.856;19.030;2022-11-20T14:18:38;46;36;22
33948;PMS7003;20229;49.856;19.030;2022-11-20T14:23:42;57;39;25
33948;PMS7003;20229;49.856;19.030;2022-11-20T14:28:47;52;39;23
33948;PMS7003;20229;49.856;19.030;2022-11-20T14:34:04;57;42;25
33948;PMS7003;20229;49.856;19.030;2022-11-20T14:39:09;64;47;31
33948;PMS7003;20229;49.856;19.030;2022-11-20T14:44:31;52;39;21
33948;PMS7003;20229;49.856;19.030;2022-11-20T14:49:36;61;47;30
33948;PMS7003;20229;49.856;19.030;2022-11-20T14:54:57;59;44;29
33948;PMS7003;20229;49.856;19.030;2022-11-20T15:05:24;69;50;33
33948;PMS7003;20229;49.856;19.030;2022-11-20T15:10:29;69;50;32
33948;PMS7003;20229;49.856;19.030;2022-11-20T15:15:49;65;48;30
33948;PMS7003;20229;49.856;19.030;2022-11-20T15:20:55;71;53;34
33948;PMS7003;20229;49.856;19.030;2022-11-20T15:26:25;66;52;33
33948;PMS7003;20229;49.856;19.030;2022-11-20T15:31:29;80;64;39
33948;PMS7003;20229;49.856;19.030;2022-11-20T15:36:41;85;66;44
33948;PMS7003;20229;49.856;19.030;2022-11-20T15:41:45;94;74;46
33948;PMS7003;20229;49.856;19.030;2022-11-20T15:47:07;98;80;54
33948;PMS7003;20229;49.856;19.030;2022-11-20T15:52:13;83;67;43
33948;PMS7003;20229;49.856;19.030;2022-11-20T15:57:32;79;66;40
33948;PMS7003;20229;49.856;19.030;2022-11-20T16:02:36;74;55;30
33948;PMS7003;20229;49.856;19.030;2022-11-20T16:07:59;96;77;48
33948;PMS7003;20229;49.856;19.030;2022-11-20T16:13:02;91;75;45
33948;PMS7003;20229;49.856;19.030;2022-11-20T16:18:25;87;70;47
33948;PMS7003;20229;49.856;19.030;2022-11-20T16:23:28;96;84;51
33948;PMS7003;20229;49.856;19.030;2022-11-20T16:28:51;104;83;52
33948;PMS7003;20229;49.856;19.030;2022-11-20T16:33:55;109;91;55
33948;PMS7003;20229;49.856;19.030;2022-11-20T16:39:17;106;86;53
33948;PMS7003;20229;49.856;19.030;2022-11-20T16:44:20;111;93;58
33948;PMS7003;20229;49.856;19.030;2022-11-20T16:49:43;116;93;59
33948;PMS7003;20229;49.856;19.030;2022-11-20T16:54:46;110;92;57
33948;PMS7003;20229;49.856;19.030;2022-11-20T17:00:10;117;95;61
33948;PMS7003;20229;49.856;19.030;2022-11-20T17:05:14;115;92;52
33948;PMS7003;20229;49.856;19.030;2022-11-20T17:10:36;115;92;58
33948;PMS7003;20229;49.856;19.030;2022-11-20T17:15:39;91;76;43
33948;PMS7003;20229;49.856;19.030;2022-11-20T17:21:02;112;95;59
33948;PMS7003;20229;49.856;19.030;2022-11-20T17:26:11;89;71;43
33948;PMS7003;20229;49.856;19.030;2022-11-20T17:31:28;114;94;59
33948;PMS7003;20229;49.856;19.030;2022-11-20T17:36:33;116;95;56
33948;PMS7003;20229;49.856;19.030;2022-11-20T17:41:54;124;102;66
33948;PMS7003;20229;49.856;19.030;2022-11-20T17:47:10;111;91;59
33948;PMS7003;20229;49.856;19.030;2022-11-20T17:52:20;114;86;54
33948;PMS7003;20229;49.856;19.030;2022-11-20T17:57:24;109;88;56
33948;PMS7003;20229;49.856;19.030;2022-11-20T18:02:46;97;78;51
33948;PMS7003;20229;49.856;19.030;2022-11-20T18:07:51;94;76;50
33948;PMS7003;20229;49.856;19.030;2022-11-20T18:13:13;85;70;43
33948;PMS7003;20229;49.856;19.030;2022-11-20T18:18:16;78;62;40
33948;PMS7003;20229;49.856;19.030;2022-11-20T18:23:39;73;56;39
33948;PMS7003;20229;49.856;19.030;2022-11-20T18:28:42;69;50;33
33948;PMS7003;20229;49.856;19.030;2022-11-20T18:34:05;73;55;34
33948;PMS7003;20229;49.856;19.030;2022-11-20T18:39:15;69;51;34
33948;PMS7003;20229;49.856;19.030;2022-11-20T18:44:31;64;47;31
33948;PMS7003;20229;49.856;19.030;2022-11-20T18:49:48;65;49;31
33948;PMS7003;20229;49.856;19.030;2022-11-20T18:54:57;74;56;37
33948;PMS7003;20229;49.856;19.030;2022-11-20T19:00:01;64;46;31
33948;PMS7003;20229;49.856;19.030;2022-11-20T19:05:23;61;45;29
33948;PMS7003;20229;49.856;19.030;2022-11-20T19:10:26;64;46;30
33948;PMS7003;20229;49.856;19.030;2022-11-20T19:15:49;81;62;41
33948;PMS7003;20229;49.856;19.030;2022-11-20T19:20:52;63;45;30
33948;PMS7003;20229;49.856;19.030;2022-11-20T19:26:15;75;56;34
33948;PMS7003;20229;49.856;19.030;2022-11-20T19:31:20;70;51;33
33948;PMS7003;20229;49.856;19.030;2022-11-20T19:36:41;76;55;33
33948;PMS7003;20229;49.856;19.030;2022-11-20T19:41:45;70;49;31
33948;PMS7003;20229;49.856;19.030;2022-11-20T19:47:07;72;51;31
33948;PMS7003;20229;49.856;19.030;2022-11-20T19:52:10;67;47;30
33948;PMS7003;20229;49.856;19.030;2022-11-20T19:57:33;69;54;33
33948;PMS7003;20229;49.856;19.030;2022-11-20T20:02:37;73;55;34
33948;PMS7003;20229;49.856;19.030;2022-11-20T20:07:59;61;38;17
33948;PMS7003;20229;49.856;19.030;2022-11-20T20:13:02;74;59;37
33948;PMS7003;20229;49.856;19.030;2022-11-20T20:18:25;73;56;34
33948;PMS7003;20229;49.856;19.030;2022-11-20T20:23:31;76;56;34
33948;PMS7003;20229;49.856;19.030;2022-11-20T20:28:51;81;60;37
33948;PMS7003;20229;49.856;19.030;2022-11-20T20:33:55;82;62;39
33948;PMS7003;20229;49.856;19.030;2022-11-20T20:39:17;86;65;42
33948;PMS7003;20229;49.856;19.030;2022-11-20T20:44:21;82;61;38
33948;PMS7003;20229;49.856;19.030;2022-11-20T20:49:43;82;60;37
33948;PMS7003;20229;49.856;19.030;2022-11-20T20:54:47;72;52;30
33948;PMS7003;20229;49.856;19.030;2022-11-20T21:00:09;46;23;6
33948;PMS7003;20229;49.856;19.030;2022-11-20T21:05:14;73;56;34
33948;PMS7003;20229;49.856;19.030;2022-11-20T21:10:35;74;56;38
33948;PMS7003;20229;49.856;19.030;2022-11-20T21:15:40;77;63;40
33948;PMS7003;20229;49.856;19.030;2022-11-20T21:21:05;84;64;40
33948;PMS7003;20229;49.856;19.030;2022-11-20T21:26:22;77;58;37
33948;PMS7003;20229;49.856;19.030;2022-11-20T21:31:28;79;62;39
33948;PMS7003;20229;49.856;19.030;2022-11-20T21:36:32;77;59;38
33948;PMS7003;20229;49.856;19.030;2022-11-20T21:41:54;80;61;40
33948;PMS7003;20229;49.856;19.030;2022-11-20T21:46:57;85;65;42
33948;PMS7003;20229;49.856;19.030;2022-11-20T21:52:20;59;38;20
33948;PMS7003;20229;49.856;19.030;2022-11-20T21:57:23;69;52;33
33948;PMS7003;20229;49.856;19.030;2022-11-20T22:02:46;68;50;32
33948;PMS7003;20229;49.856;19.030;2022-11-20T22:07:49;65;45;28
33948;PMS7003;20229;49.856;19.030;2022-11-20T22:13:12;69;52;35
33948;PMS7003;20229;49.856;19.030;2022-11-20T22:18:27;62;43;27
33948;PMS7003;20229;49.856;19.030;2022-11-20T22:23:38;17;6;3
33948;PMS7003;20229;49.856;19.030;2022-11-20T22:28:42;52;35;21
33948;PMS7003;20229;49.856;19.030;2022-11-20T22:34:04;58;38;26
33948;PMS7003;20229;49.856;19.030;2022-11-20T22:39:07;56;38;24
33948;PMS7003;20229;49.856;19.030;2022-11-20T22:44:30;46;31;22
33948;PMS7003;20229;49.856;19.030;2022-11-20T22:49:41;48;32;22
33948;PMS7003;20229;49.856;19.030;2022-11-20T22:55:07;46;29;20
33948;PMS7003;20229;49.856;19.030;2022-11-20T23:00:11;48;31;23
33948;PMS7003;20229;49.856;19.030;2022-11-20T23:05:33;41;26;18
33948;PMS7003;20229;49.856;19.030;2022-11-20T23:10:36;42;27;18
33948;PMS7003;20229;49.856;19.030;2022-11-20T23:16:00;45;30;20
33948;PMS7003;20229;49.856;19.030;2022-11-20T23:21:11;45;30;19
33948;PMS7003;20229;49.856;19.030;2022-11-20T23:26:29;46;29;20
33948;PMS7003;20229;49.856;19.030;2022-11-20T23:31:35;43;28;19
33948;PMS7003;20229;49.856;19.030;2022-11-20T23:36:50;38;24;16
33948;PMS7003;20229;49.856;19.030;2022-11-20T23:41:53;41;26;18
33948;PMS7003;20229;49.856;19.030;2022-11-20T23:47:16;27;14;10
33948;PMS7003;20229;49.856;19.030;2022-11-20T23:52:19;24;8;4
33948;PMS7003;20229;49.856;19.030;2022-11-20T23:57:42;25;11;10
